Dundee, MI (48131)

10:21 PM EST on February 12, 2016 (GMT -0500)
Near Dundee Middle School | | Change Station
CLOSE
Current Station
Personal Weather Station
Location: Dundee, MI
Elevation: 666 ft
Nearby Weather Stations

Elev 666 ft 41.96 °N, 83.65 °W | Updated 20 seconds ago

Overcast
Overcast
12.9 °F
Feels Like 13 °F
N
2.9
Wind Variable Wind from NNE
Gusts 4.9 mph

Today
High -- | Low -- °F
--% Chance of Precip.
Yesterday
High -- | Low -- °F
Precip. -- in
Pressure 30.17 in
Visibility 10.0 miles
Clouds Scattered Clouds 4800 ft
Scattered Clouds 5000 ft
Windchill 13 °F
Dew Point 0 °F
Humidity 57%
Rainfall 0.00 in
Snow Depth Not available.
7:35 AM 6:03 PM
Waxing Crescent, 26% visible
METAR KTTF 130313Z AUTO 34013G21KT 10SM SCT048 SCT050 M10/M18 A3017 RMK AO2 T11031183
Pressure 30.17 in
Visibility 10.0 miles
Clouds Scattered Clouds 4800 ft
Scattered Clouds 5000 ft
Windchill 13 °F
Dew Point 0 °F
Humidity 57%
Rainfall 0.00 in
Snow Depth Not available.
7:35 AM 6:03 PM
Waxing Crescent, 26% visible
METAR KTTF 130313Z AUTO 34013G21KT 10SM SCT048 SCT050 M10/M18 A3017 RMK AO2 T11031183

10-Day Weather Forecast

Almanac

Astronomy

Feb. 12, 2016 Rise Set
Actual Time
Civil Twilight
Nautical Twilight
Astronomical Twilight
Moon
Length of Visible Light
Length of Day
Tomorrow will be .
, % of the Moon is Illuminated

Today's Extremes

State Highs State Lows

Community

WunderPhotos

Upload Photos

1,892,491 photos uploaded!

WunderBlog® & News

Nearby

Air Quality

  Air Quality AQ Index Pollutant
Not available.

Snow Depth

Station Depth Elevation

Earthquake Activity

City Distance Mag. Time & Date
Minimum magnitude displayed is 2.5.

Coastal Water Temperatures

Place Temperature

Stations

Nearby Weather Stations

Station Location Temp. Windchill Dew Point Humidity Wind Precip. Elev Updated Type
                   

Watches & Warnings

There are currently no watches in effect.